createdAt,value
2022-08-16T00:00:46.142Z,14.38
2022-08-16T00:04:48.006Z,12.63
2022-08-16T00:08:52.402Z,14.82
2022-08-16T00:12:53.492Z,13.50
2022-08-16T00:17:06.470Z,12.05
2022-08-16T00:21:16.707Z,13.93
2022-08-16T00:25:19.123Z,12.73
2022-08-16T00:29:19.114Z,12.38
2022-08-16T00:33:19.169Z,15.50
2022-08-16T00:37:24.631Z,15.93
2022-08-16T00:41:25.886Z,12.68
2022-08-16T00:45:35.603Z,13.25
2022-08-16T00:49:39.149Z,11.63
2022-08-16T00:53:41.233Z,12.13
2022-08-16T00:57:58.549Z,11.48
2022-08-16T01:02:00.306Z,13.40
2022-08-16T01:06:40.161Z,13.93
2022-08-16T01:10:44.663Z,12.00
2022-08-16T01:14:51.563Z,11.85
2022-08-16T01:18:59.343Z,11.70
2022-08-16T01:23:08.715Z,12.60
2022-08-16T01:31:16.646Z,13.18
2022-08-16T01:35:21.462Z,11.88
2022-08-16T01:39:21.906Z,15.23
2022-08-16T01:43:26.778Z,12.85
2022-08-16T01:47:29.458Z,12.52
2022-08-16T01:51:39.275Z,11.65
2022-08-16T01:55:42.425Z,12.85
2022-08-16T01:59:55.357Z,14.63
2022-08-16T02:03:58.129Z,12.25
2022-08-16T02:07:58.834Z,13.45
2022-08-16T02:12:45.858Z,14.32
2022-08-16T02:16:29.577Z,15.00
2022-08-16T02:20:42.704Z,12.60
2022-08-16T02:24:45.869Z,13.93
2022-08-16T02:28:47.145Z,15.93
2022-08-16T02:32:51.683Z,15.10
2022-08-16T02:36:52.038Z,18.55
2022-08-16T02:40:54.498Z,19.75
2022-08-16T02:44:54.294Z,17.02
2022-08-16T02:48:56.530Z,16.10
2022-08-16T02:53:00.179Z,18.67
2022-08-16T02:56:59.540Z,22.08
2022-08-16T03:00:59.406Z,20.48
2022-08-16T03:05:02.822Z,17.67
2022-08-16T03:09:02.411Z,17.65
2022-08-16T03:13:12.501Z,21.38
2022-08-16T03:17:12.538Z,14.25
2022-08-16T03:21:14.982Z,51.33
2022-08-16T03:25:18.792Z,17.08
2022-08-16T03:29:20.406Z,18.15
2022-08-16T03:33:23.602Z,17.77
2022-08-16T03:37:26.406Z,23.67
2022-08-16T03:41:49.666Z,17.30
2022-08-16T03:45:49.209Z,18.35
2022-08-16T03:49:52.444Z,18.55
2022-08-16T03:54:00.732Z,22.55
2022-08-16T03:58:02.508Z,16.55
2022-08-16T04:02:12.213Z,14.50
2022-08-16T04:06:22.929Z,18.15
2022-08-16T04:10:36.061Z,16.08
2022-08-16T04:14:36.780Z,18.35
2022-08-16T04:18:38.471Z,13.23
2022-08-16T04:22:39.932Z,12.25
2022-08-16T04:26:46.187Z,13.85
2022-08-16T04:30:47.882Z,18.92
2022-08-16T04:34:50.753Z,15.77
2022-08-16T04:38:52.507Z,13.35
2022-08-16T04:42:54.718Z,14.77
2022-08-16T04:47:02.456Z,14.75
2022-08-16T04:51:07.966Z,14.60
2022-08-16T04:55:17.133Z,11.48
2022-08-16T04:59:25.192Z,12.20
2022-08-16T05:03:28.101Z,13.68
2022-08-16T05:07:27.612Z,14.90
2022-08-16T05:11:34.296Z,14.98
2022-08-16T05:15:36.895Z,12.60
2022-08-16T05:19:37.216Z,14.07
2022-08-16T05:23:37.582Z,12.27
2022-08-16T05:27:43.036Z,13.32
2022-08-16T05:31:48.426Z,19.73
2022-08-16T05:35:54.799Z,21.83
2022-08-16T05:39:56.913Z,18.50
2022-08-16T06:08:42.200Z,16.73
2022-08-16T06:25:08.734Z,14.70
2022-08-16T06:29:09.150Z,16.23
2022-08-16T06:33:12.503Z,23.33
2022-08-16T06:37:12.790Z,21.45
2022-08-16T06:41:51.351Z,26.60
2022-08-16T06:46:19.327Z,25.30
2022-08-16T06:50:28.574Z,23.65
2022-08-16T06:54:49.898Z,19.23
2022-08-16T06:58:51.472Z,18.25
2022-08-16T07:02:57.243Z,22.02
2022-08-16T07:06:57.335Z,20.80
2022-08-16T07:11:45.526Z,26.55
2022-08-16T07:15:21.654Z,26.02
2022-08-16T07:20:01.803Z,32.47
2022-08-16T07:23:49.252Z,20.83
2022-08-16T07:28:01.683Z,32.65
2022-08-16T07:32:02.009Z,23.38
2022-08-16T07:36:07.470Z,17.48
2022-08-16T07:40:12.805Z,22.67
2022-08-16T07:44:15.447Z,19.92
2022-08-16T07:48:16.814Z,18.25
2022-08-16T07:52:29.893Z,19.05
2022-08-16T07:56:33.772Z,18.70
2022-08-16T08:00:35.669Z,19.38
2022-08-16T08:04:40.748Z,23.13
2022-08-16T08:08:51.018Z,25.42
2022-08-16T08:12:59.838Z,31.63
2022-08-16T08:17:02.946Z,21.50
2022-08-16T08:21:03.335Z,17.95
2022-08-16T08:25:07.217Z,18.15
2022-08-16T08:29:14.853Z,16.00
2022-08-16T08:33:27.146Z,11.50
2022-08-16T08:37:54.529Z,17.13
2022-08-16T08:42:05.014Z,14.77
2022-08-16T08:46:18.102Z,15.30
2022-08-16T08:50:32.019Z,16.05
2022-08-16T08:54:34.194Z,19.25
2022-08-16T08:58:39.375Z,17.98
2022-08-16T09:02:57.006Z,17.35
2022-08-16T09:07:01.294Z,23.25
2022-08-16T09:11:03.113Z,18.20
2022-08-16T09:15:06.047Z,16.30
2022-08-16T09:23:07.094Z,12.35
2022-08-16T09:27:11.385Z,9.90
2022-08-16T09:31:14.910Z,11.40
2022-08-16T09:35:16.633Z,10.25
2022-08-16T09:39:17.812Z,12.23
2022-08-16T09:43:53.255Z,10.25
2022-08-16T09:47:56.299Z,11.35
2022-08-16T09:51:57.759Z,13.52
2022-08-16T09:55:58.849Z,11.90
2022-08-16T10:00:00.669Z,11.45
2022-08-16T10:04:04.228Z,9.88
2022-08-16T10:08:25.708Z,11.52
2022-08-16T10:12:46.599Z,11.20
2022-08-16T10:17:00.005Z,10.07
2022-08-16T10:21:05.823Z,9.57
2022-08-16T10:27:16.755Z,9.60
2022-08-16T10:29:59.186Z,11.05
2022-08-16T10:34:01.358Z,8.93
2022-08-16T10:38:06.561Z,10.10
2022-08-16T10:42:17.198Z,10.07
2022-08-16T10:46:39.470Z,8.68
2022-08-16T10:50:46.439Z,9.57
2022-08-16T10:59:39.241Z,9.80
2022-08-16T11:03:56.923Z,8.18
2022-08-16T11:07:57.969Z,9.57
2022-08-16T11:12:13.544Z,9.27
2022-08-16T11:16:26.747Z,8.75
2022-08-16T11:20:41.568Z,7.53
2022-08-16T11:24:45.442Z,8.52
2022-08-16T11:29:33.048Z,7.25
2022-08-16T11:33:52.745Z,8.30
2022-08-16T11:42:58.294Z,14.32
2022-08-16T11:47:04.321Z,8.68
2022-08-16T11:51:07.790Z,9.80
2022-08-16T11:55:10.404Z,7.78
2022-08-16T11:59:18.908Z,8.38
2022-08-16T12:03:34.922Z,7.25
2022-08-16T12:07:35.477Z,7.70
2022-08-16T12:11:43.675Z,10.10
2022-08-16T12:16:08.168Z,8.43
2022-08-16T12:21:01.878Z,9.02
2022-08-16T12:25:16.780Z,10.45
2022-08-16T12:29:17.051Z,8.18
2022-08-16T12:33:25.576Z,9.38
2022-08-16T12:37:28.687Z,8.43
2022-08-16T12:41:38.932Z,7.40
2022-08-16T12:45:51.325Z,7.32
2022-08-16T12:49:56.553Z,8.48
2022-08-16T12:54:03.963Z,9.18
2022-08-16T12:58:03.271Z,9.32
2022-08-16T13:02:22.701Z,7.32
2022-08-16T13:06:48.293Z,7.00
2022-08-16T13:10:57.393Z,7.50
2022-08-16T13:15:00.163Z,7.43
2022-08-16T13:19:00.097Z,8.30
2022-08-16T13:23:07.363Z,9.07
2022-08-16T13:27:17.801Z,9.05
2022-08-16T13:31:24.047Z,9.65
2022-08-16T13:35:26.931Z,8.00
2022-08-16T13:39:34.949Z,7.88
2022-08-16T13:43:44.471Z,8.20
2022-08-16T13:48:05.322Z,10.70
2022-08-16T13:52:18.256Z,9.15
2022-08-16T13:56:26.166Z,9.18
2022-08-16T14:00:43.140Z,7.97
2022-08-16T14:04:47.025Z,8.25
2022-08-16T14:09:06.973Z,8.90
2022-08-16T14:13:07.781Z,8.00
2022-08-16T14:17:23.791Z,7.78
2022-08-16T14:21:27.041Z,8.60
2022-08-16T14:25:40.036Z,7.68
2022-08-16T14:29:49.396Z,7.97
2022-08-16T14:34:11.149Z,8.30
2022-08-16T14:38:11.485Z,8.65
2022-08-16T14:42:21.065Z,8.20
2022-08-16T14:46:21.330Z,7.60
2022-08-16T14:50:25.088Z,7.57
2022-08-16T14:54:30.512Z,7.80
2022-08-16T14:58:34.881Z,9.02
2022-08-16T15:03:01.291Z,8.15
2022-08-16T15:07:34.460Z,8.65
2022-08-16T15:11:44.882Z,10.95
2022-08-16T15:15:45.333Z,10.25
2022-08-16T15:20:00.185Z,8.65
2022-08-16T15:24:06.987Z,7.35
2022-08-16T15:28:30.934Z,10.00
2022-08-16T15:32:32.508Z,7.97
2022-08-16T15:36:32.748Z,8.48
2022-08-16T15:40:36.347Z,10.25
2022-08-16T15:44:58.381Z,8.10
2022-08-16T15:49:05.140Z,11.27
2022-08-16T15:53:18.063Z,11.88
2022-08-16T15:57:21.467Z,8.65
2022-08-16T16:01:23.930Z,7.32
2022-08-16T16:05:25.678Z,6.78
2022-08-16T16:09:36.646Z,7.85
2022-08-16T16:13:55.703Z,6.90
2022-08-16T16:17:59.382Z,9.02
2022-08-16T16:22:09.578Z,7.10
2022-08-16T16:26:26.805Z,6.70
2022-08-16T16:30:33.331Z,7.40
2022-08-16T16:34:49.388Z,8.07
2022-08-16T16:38:50.835Z,12.80
2022-08-16T16:42:56.194Z,14.23
2022-08-16T16:46:58.782Z,5.63
2022-08-16T16:51:09.796Z,13.00
2022-08-16T16:55:13.130Z,18.38
2022-08-16T16:59:14.910Z,12.32
2022-08-16T17:03:20.034Z,7.90
2022-08-16T17:07:24.184Z,4.60
2022-08-16T17:11:25.214Z,7.30
2022-08-16T17:15:36.899Z,7.30
2022-08-16T17:19:43.148Z,5.43
2022-08-16T17:23:59.282Z,7.15
2022-08-16T17:28:00.470Z,5.82
2022-08-16T17:32:02.537Z,8.50
2022-08-16T17:36:36.582Z,6.68
2022-08-16T17:40:50.376Z,5.80
2022-08-16T17:44:57.526Z,5.50
2022-08-16T17:48:58.568Z,7.47
2022-08-16T17:53:01.058Z,4.85
2022-08-16T17:57:01.409Z,4.88
2022-08-16T18:01:02.101Z,5.90
2022-08-16T18:05:03.532Z,6.70
2022-08-16T18:09:05.931Z,6.70
2022-08-16T18:13:06.411Z,7.35
2022-08-16T18:17:07.470Z,6.22
2022-08-16T18:21:24.063Z,6.30
2022-08-16T18:25:26.096Z,6.28
2022-08-16T18:29:26.300Z,7.70
2022-08-16T18:33:28.443Z,7.35
2022-08-16T18:37:33.729Z,7.43
2022-08-16T18:41:46.930Z,7.47
2022-08-16T18:45:51.192Z,9.95
2022-08-16T18:49:50.860Z,7.88
2022-08-16T18:53:51.159Z,10.38
2022-08-16T18:57:53.230Z,7.20
2022-08-16T19:01:54.119Z,7.13
2022-08-16T19:06:05.359Z,6.93
2022-08-16T19:10:09.037Z,14.98
2022-08-16T19:14:11.166Z,11.15
2022-08-16T19:18:12.385Z,10.60
2022-08-16T19:22:12.925Z,9.60
2022-08-16T19:26:24.730Z,9.90
2022-08-16T19:30:30.560Z,7.60
2022-08-16T19:34:30.990Z,8.20
2022-08-16T19:38:30.577Z,9.55
2022-08-16T19:42:31.088Z,12.02
2022-08-16T19:46:34.189Z,10.27
2022-08-16T19:50:44.882Z,8.00
2022-08-16T19:54:47.342Z,10.27
2022-08-16T19:59:17.001Z,12.20
2022-08-16T20:03:17.506Z,11.60
2022-08-16T20:07:18.356Z,11.60
2022-08-16T20:11:21.341Z,12.25
2022-08-16T20:15:26.711Z,11.25
2022-08-16T20:19:36.077Z,9.75
2022-08-16T20:23:40.901Z,8.95
2022-08-16T20:27:41.337Z,8.82
2022-08-16T20:31:41.876Z,11.23
2022-08-16T20:35:45.766Z,11.38
2022-08-16T20:39:46.478Z,10.10
2022-08-16T20:43:47.584Z,9.73
2022-08-16T20:47:47.908Z,9.52
2022-08-16T20:51:54.861Z,9.15
2022-08-16T20:55:57.089Z,11.95
2022-08-16T20:59:57.427Z,9.88
2022-08-16T21:03:59.677Z,9.25
2022-08-16T21:08:04.784Z,10.75
2022-08-16T21:12:21.885Z,13.55
2022-08-16T21:16:22.295Z,9.70
2022-08-16T21:20:25.152Z,16.58
2022-08-16T21:24:27.657Z,12.02
2022-08-16T21:28:40.397Z,11.15
2022-08-16T21:32:43.836Z,14.18
2022-08-16T21:36:44.077Z,14.10
2022-08-16T21:40:46.856Z,9.15
2022-08-16T21:44:47.722Z,14.68
2022-08-16T21:48:47.931Z,10.73
2022-08-16T21:52:49.026Z,11.10
2022-08-16T21:56:51.773Z,13.73
2022-08-16T22:00:52.023Z,8.80
2022-08-16T22:04:52.712Z,13.65
2022-08-16T22:08:54.213Z,9.45
2022-08-16T22:12:57.243Z,8.50
2022-08-16T22:16:56.939Z,10.02
2022-08-16T22:20:57.801Z,8.50
2022-08-16T22:24:58.747Z,7.72
2022-08-16T22:29:02.002Z,13.48
2022-08-16T22:33:01.517Z,9.45
2022-08-16T22:37:02.863Z,9.30
2022-08-16T22:41:04.543Z,10.68
2022-08-16T22:45:09.739Z,8.57
2022-08-16T22:49:13.308Z,10.43
2022-08-16T22:53:14.760Z,9.93
2022-08-16T22:57:14.534Z,8.05
2022-08-16T23:01:18.944Z,11.88
2022-08-16T23:05:19.872Z,8.30
2022-08-16T23:09:20.268Z,7.57
2022-08-16T23:13:21.407Z,7.93
2022-08-16T23:17:23.866Z,11.05
2022-08-16T23:21:23.712Z,10.13
2022-08-16T23:25:29.664Z,8.45
2022-08-16T23:29:29.802Z,16.00
2022-08-16T23:33:32.874Z,9.35
2022-08-16T23:37:32.687Z,8.60
2022-08-16T23:41:35.211Z,9.90
2022-08-16T23:45:36.909Z,8.02
2022-08-16T23:50:00.941Z,8.73
2022-08-16T23:54:01.021Z,7.82
2022-08-16T23:58:01.843Z,10.93
